Aberdeen, Idaho
Current Conditions -  °F | °C
As of 1:53 PM on Tuesday 27 Jan 2015 (Local Time) from KPIH Reporting Station
Overcast Overcast  
Wind Chill:   Ceiling: 6500
Heat Index:   Visibility: 10mi
Dew Point:   Wind: 23mph
Humidity: 68%   Direction: 190°S
Pressure: 30.14"   Gusts: 30mph
Location:  42.94°N, 112.84°W
Report Text: KPIH 272053Z 19020G26KT 10SM BKN065 OVC080 09/03 A3014 RMK AO2 PK WND 18027/2039 SLP213 T00890033 55008
Loading
Personal Weather Stations






























Interactive Weather Map New forecast layout! Learn more

10-Day Weather Forecast

Advertisements
Track Severe Weather on mobile